Time;durP1;ratioP1;P1;durP2;ratioP2;P2;SDS_P1;SDS_P2;PMS_P1;PMS_P2;Temp;Humidity;BMP_temperature;BMP_pressure;BME280_temperature;BME280_humidity;BME280_pressure;Samples;Min_cycle;Max_cycle;Signal;HPM_P1;HPM_P2
2024/02/08 00:01:42;;;;;;;7.63;3.83;;;;;;;13.13;41.27;98253.38;5037644;28;20120;-78
2024/02/08 00:04:07;;;;;;;8.23;3.92;;;;;;;13.16;41.36;98268.00;5037580;28;20179;-77
2024/02/08 00:06:33;;;;;;;8.57;3.90;;;;;;;13.16;41.40;98271.44;5037668;28;20127;-78
2024/02/08 00:09:02;;;;;;;6.40;3.78;;;;;;;13.15;41.29;98272.38;5037712;28;20037;-79
2024/02/08 00:11:28;;;;;;;5.65;3.45;;;;;;;13.14;41.27;98268.13;5054154;28;20027;-79
2024/02/08 00:13:54;;;;;;;8.45;4.32;;;;;;;13.12;41.50;98261.38;5054200;28;20036;-79
2024/02/08 00:16:19;;;;;;;6.72;3.72;;;;;;;13.15;41.31;98272.38;5037696;28;20036;-78
2024/02/08 00:18:45;;;;;;;6.78;3.80;;;;;;;13.13;41.41;98270.91;5037544;28;20042;-79
2024/02/08 00:21:12;;;;;;;7.20;3.88;;;;;;;13.16;41.56;98270.63;5071459;28;20029;-78
2024/02/08 00:23:37;;;;;;;6.47;3.97;;;;;;;13.19;41.13;98276.38;5054317;28;20525;-78
2024/02/08 00:26:03;;;;;;;6.38;3.88;;;;;;;13.17;41.19;98270.47;5054517;28;20020;-78
2024/02/08 00:28:28;;;;;;;8.32;4.30;;;;;;;13.12;41.55;98264.00;5038001;28;20063;-78
2024/02/08 00:30:54;;;;;;;6.95;3.53;;;;;;;13.13;41.27;98276.16;5037377;28;20044;-78
2024/02/08 00:33:20;;;;;;;6.78;3.80;;;;;;;13.13;41.37;98279.56;5038703;28;20032;-77
2024/02/08 00:35:45;;;;;;;6.90;3.95;;;;;;;13.13;41.53;98281.38;5041518;28;20401;-78
2024/02/08 00:38:11;;;;;;;8.85;4.43;;;;;;;13.07;41.32;98271.47;5058025;28;20031;-78
2024/02/08 00:40:36;;;;;;;8.35;4.20;;;;;;;13.04;41.45;98267.34;5041380;28;20052;-77
2024/02/08 00:43:06;;;;;;;9.70;4.30;;;;;;;13.06;41.80;98277.69;5041011;28;20052;-77
2024/02/08 00:45:32;;;;;;;8.32;4.50;;;;;;;13.00;41.92;98277.28;5042583;28;20054;-76
2024/02/08 00:47:59;;;;;;;7.88;4.85;;;;;;;12.99;41.63;98282.69;5041454;28;20036;-78
2024/02/08 00:50:25;;;;;;;7.75;4.38;;;;;;;12.91;41.49;98269.47;5041664;28;20051;-79
2024/02/08 00:52:52;;;;;;;9.20;4.57;;;;;;;12.93;41.90;98278.00;5057715;28;20475;-77
2024/02/08 00:55:18;;;;;;;6.65;4.32;;;;;;;12.85;41.96;98265.63;5041402;28;20035;-77
2024/02/08 00:57:44;;;;;;;10.32;4.68;;;;;;;12.86;41.65;98264.66;5041276;28;20454;-77
2024/02/08 01:00:10;;;;;;;7.43;4.38;;;;;;;12.79;42.09;98253.94;5074320;28;20054;-78
2024/02/08 01:02:35;;;;;;;11.02;4.47;;;;;;;12.82;41.90;98255.44;5040993;28;20034;-78
2024/02/08 01:05:01;;;;;;;8.18;4.35;;;;;;;12.79;41.98;98256.56;5041031;28;20032;-79
2024/02/08 01:07:31;;;;;;;9.23;4.60;;;;;;;12.77;42.12;98248.00;5040904;28;20052;-77
2024/02/08 01:09:57;;;;;;;7.65;4.35;;;;;;;12.73;42.26;98240.56;5058490;28;20029;-79
2024/02/08 01:12:23;;;;;;;9.75;4.30;;;;;;;12.76;41.99;98251.59;5040911;28;20105;-78
2024/02/08 01:14:49;;;;;;;8.32;4.15;;;;;;;12.73;42.34;98251.03;5074287;28;20029;-77
2024/02/08 01:17:14;;;;;;;8.98;4.65;;;;;;;12.73;42.21;98253.66;5041072;28;20036;-78
2024/02/08 01:19:43;;;;;;;8.70;4.53;;;;;;;12.72;42.12;98254.66;5040699;28;20033;-77
2024/02/08 01:22:08;;;;;;;5.65;3.60;;;;;;;12.66;42.49;98248.16;5057646;28;20032;-78
2024/02/08 01:24:34;;;;;;;10.55;4.38;;;;;;;12.69;42.52;98258.38;5057045;28;20491;-79
2024/02/08 01:27:00;;;;;;;7.40;4.00;;;;;;;12.61;42.33;98240.75;5056955;28;20037;-79
2024/02/08 01:29:26;;;;;;;8.80;4.50;;;;;;;12.61;42.23;98239.94;5040518;28;20047;-77
2024/02/08 01:31:52;;;;;;;8.82;4.22;;;;;;;12.57;42.46;98242.00;5040555;28;20032;-78
2024/02/08 01:34:18;;;;;;;8.13;4.35;;;;;;;12.57;42.37;98233.31;5040347;28;20071;-78
2024/02/08 01:36:43;;;;;;;7.20;4.00;;;;;;;12.56;42.43;98229.06;5057315;28;20029;-79
2024/02/08 01:39:22;;;;;;;9.65;4.53;;;;;;;12.60;42.50;98235.66;5056833;28;20028;-77
2024/02/08 01:41:49;;;;;;;8.15;4.28;;;;;;;12.54;42.33;98230.97;5058949;28;20037;-77
2024/02/08 01:44:16;;;;;;;8.73;4.28;;;;;;;12.51;42.47;98226.88;5056196;28;20048;-77
2024/02/08 01:46:41;;;;;;;8.45;4.22;;;;;;;12.55;42.54;98236.06;5055911;28;20047;-78
2024/02/08 01:49:14;;;;;;;6.20;4.00;;;;;;;12.56;42.60;98237.72;5056609;28;20480;-77
2024/02/08 01:51:39;;;;;;;9.30;4.13;;;;;;;12.48;42.71;98221.91;5057480;28;20028;-77
2024/02/08 01:54:12;;;;;;;6.40;4.30;;;;;;;12.56;42.78;98229.06;5073431;28;20033;-78
2024/02/08 01:56:41;;;;;;;7.88;4.50;;;;;;;12.49;42.58;98228.78;5040767;28;20032;-78
2024/02/08 01:59:11;;;;;;;7.93;3.83;;;;;;;12.50;42.62;98225.19;5073282;28;20035;-79
2024/02/08 02:01:36;;;;;;;6.82;4.03;;;;;;;12.53;42.43;98230.16;5057460;28;20051;-76
2024/02/08 02:04:02;;;;;;;7.75;4.43;;;;;;;12.54;42.55;98230.97;5056511;28;20476;-79
2024/02/08 02:06:27;;;;;;;8.05;4.00;;;;;;;12.51;42.40;98228.63;5073097;28;20025;-78
2024/02/08 02:08:57;;;;;;;8.32;4.70;;;;;;;12.47;42.59;98218.44;5040225;28;20059;-78
2024/02/08 02:11:38;;;;;;;7.85;4.38;;;;;;;12.52;42.83;98225.88;5057214;28;20033;-78
2024/02/08 02:14:04;;;;;;;6.97;4.50;;;;;;;12.49;42.77;98218.31;5057049;28;20043;-77
2024/02/08 02:16:30;;;;;;;6.70;3.75;;;;;;;12.44;42.89;98217.91;5039657;28;20078;-78
2024/02/08 02:18:56;;;;;;;7.43;3.65;;;;;;;12.46;42.74;98224.66;5056278;28;20032;-77
2024/02/08 02:21:21;;;;;;;13.10;4.95;;;;;;;12.47;42.83;98222.88;5056364;28;20454;-78
2024/02/08 02:23:47;;;;;;;10.90;4.25;;;;;;;12.45;42.62;98222.19;5056195;28;20029;-78
2024/02/08 02:26:13;;;;;;;8.30;4.25;;;;;;;12.42;43.09;98217.25;5073768;28;20028;-79
2024/02/08 02:28:42;;;;;;;7.57;4.20;;;;;;;12.39;42.75;98210.47;5055848;28;20037;-79
2024/02/08 02:31:07;;;;;;;9.38;4.20;;;;;;;12.39;42.83;98217.53;5039669;28;20029;-79
2024/02/08 02:33:36;;;;;;;8.02;3.60;;;;;;;12.38;43.25;98218.47;5072479;28;20039;-79
2024/02/08 02:36:07;;;;;;;5.45;3.95;;;;;;;12.35;42.84;98218.75;5055743;28;20108;-77
2024/02/08 02:38:34;;;;;;;8.15;4.43;;;;;;;12.34;43.06;98231.03;5039811;28;20047;-78
2024/02/08 02:41:06;;;;;;;9.73;4.15;;;;;;;12.28;43.06;98211.47;5055891;28;20048;-78
2024/02/08 02:43:33;;;;;;;6.75;4.03;;;;;;;12.31;43.02;98226.06;5056317;28;20519;-79
2024/02/08 02:45:58;;;;;;;7.85;4.07;;;;;;;12.28;42.99;98228.97;5072026;28;20020;-78
2024/02/08 02:48:24;;;;;;;8.85;4.40;;;;;;;12.25;42.89;98231.88;5038736;28;20035;-79
2024/02/08 02:50:51;;;;;;;9.70;4.55;;;;;;;12.24;43.22;98235.44;5055139;28;20565;-78
2024/02/08 02:53:17;;;;;;;8.25;4.20;;;;;;;12.18;43.29;98249.09;5055690;28;20123;-79
2024/02/08 02:55:42;;;;;;;10.55;4.20;;;;;;;12.18;43.31;98246.50;5055090;28;20103;-78
2024/02/08 02:58:08;;;;;;;10.55;4.20;;;;;;;12.16;43.40;98245.78;5038715;28;20064;-78
2024/02/08 03:00:34;;;;;;;11.30;4.28;;;;;;;12.07;43.19;98240.41;5073201;28;20033;-79
2024/02/08 03:03:12;;;;;;;8.85;4.88;;;;;;;12.09;43.36;98245.50;5055156;28;20048;-79
2024/02/08 03:05:46;;;;;;;8.65;4.30;;;;;;;12.06;43.18;98256.25;5055658;28;20021;-78
2024/02/08 03:08:11;;;;;;;9.80;4.07;;;;;;;11.98;43.59;98241.25;5039917;28;20105;-78
2024/02/08 03:10:39;;;;;;;7.40;4.15;;;;;;;11.98;43.63;98246.47;5055206;28;20056;-79
2024/02/08 03:13:07;;;;;;;10.60;4.57;;;;;;;11.98;43.40;98246.47;5055619;28;20477;-77
2024/02/08 03:15:32;;;;;;;8.43;4.40;;;;;;;11.91;43.58;98229.66;5038489;28;20071;-78
2024/02/08 03:18:00;;;;;;;6.75;4.25;;;;;;;11.91;43.72;98238.34;5071496;28;20052;-78
2024/02/08 03:20:31;;;;;;;7.43;4.53;;;;;;;11.87;43.43;98231.72;5038802;28;20454;-77
2024/02/08 03:22:57;;;;;;;9.45;4.38;;;;;;;11.84;43.50;98228.56;5055776;28;20111;-77
2024/02/08 03:25:22;;;;;;;7.18;4.35;;;;;;;11.76;43.64;98224.00;5055011;28;20111;-77
2024/02/08 03:27:52;;;;;;;7.00;4.28;;;;;;;11.77;43.90;98230.91;5038059;28;20059;-78
2024/02/08 03:30:22;;;;;;;8.57;4.30;;;;;;;11.74;43.83;98233.78;5071597;28;20026;-77
2024/02/08 03:32:55;;;;;;;8.15;4.28;;;;;;;11.68;43.96;98229.91;5038719;28;20472;-78
2024/02/08 03:35:25;;;;;;;7.75;4.35;;;;;;;11.69;43.63;98239.41;5071854;28;20052;-75
2024/02/08 03:37:52;;;;;;;8.98;4.55;;;;;;;11.62;43.83;98227.03;5054794;28;20037;-77
2024/02/08 03:40:20;;;;;;;8.35;4.50;;;;;;;11.61;43.77;98236.66;5033630;28;20487;-76
2024/02/08 03:42:49;;;;;;;7.90;4.40;;;;;;;11.61;43.87;98236.66;5034912;28;20052;-77
2024/02/08 03:45:17;;;;;;;8.30;4.72;;;;;;;11.53;43.98;98221.66;5035291;28;20025;-78
2024/02/08 03:47:45;;;;;;;8.80;4.73;;;;;;;11.54;44.02;98225.09;5018424;28;20033;-78
2024/02/08 03:50:11;;;;;;;6.65;4.50;;;;;;;11.56;44.05;98239.69;5018671;28;20275;-76
2024/02/08 03:52:37;;;;;;;8.68;5.32;;;;;;;11.55;43.92;98231.97;5017555;28;20040;-77
2024/02/08 03:55:08;;;;;;;6.05;4.07;;;;;;;11.52;43.98;98234.84;5034624;28;20041;-76
2024/02/08 03:57:36;;;;;;;10.00;4.68;;;;;;;11.46;44.07;98230.16;5019168;28;20082;-76
2024/02/08 04:00:13;;;;;;;9.45;4.93;;;;;;;11.51;46.67;98226.19;5051102;28;20479;-76
2024/02/08 04:02:43;;;;;;;9.57;3.88;;;;;;;11.63;58.28;98226.88;5020453;28;20102;-80
2024/02/08 04:05:19;;;;;;;10.65;4.28;;;;;;;11.75;54.21;98235.44;5035195;28;20456;-80
2024/02/08 04:07:56;;;;;;;9.93;4.68;;;;;;;11.78;54.43;98240.41;5035671;28;20033;-78
2024/02/08 04:54:17;;;;;;;10.48;4.85;;;;;;;11.80;59.04;98242.84;5035333;28;20048;-79
2024/02/08 04:56:46;;;;;;;9.40;5.10;;;;;;;11.73;57.86;98242.59;5016062;28;20037;-78
2024/02/08 04:59:12;;;;;;;12.15;5.13;;;;;;;11.67;56.55;98240.50;5000466;28;20191;-79
2024/02/08 05:01:41;;;;;;;8.90;4.68;;;;;;;11.64;55.82;98253.84;5013955;28;20033;-77
2024/02/08 05:04:07;;;;;;;8.15;4.75;;;;;;;11.54;55.11;98249.47;5031285;28;20037;-81
2024/02/08 05:06:35;;;;;;;8.02;4.95;;;;;;;11.49;54.23;98246.41;5016565;28;20037;-81
2024/02/08 05:09:01;;;;;;;14.77;5.20;;;;;;;11.44;53.76;98251.22;5016226;28;20044;-82
2024/02/08 05:11:29;;;;;;;8.77;5.28;;;;;;;11.38;53.24;98256.97;5049720;28;20184;-81
2024/02/08 05:14:00;;;;;;;9.55;5.35;;;;;;;11.35;52.71;98255.47;4998213;28;20041;-82
2024/02/08 05:16:26;;;;;;;8.90;5.53;;;;;;;11.32;52.46;98262.72;5031516;28;20029;-81
2024/02/08 05:18:53;;;;;;;10.43;5.88;;;;;;;11.28;51.66;98266.59;4997059;28;20045;-82
2024/02/08 05:21:19;;;;;;;14.85;6.28;;;;;;;11.21;51.38;98264.50;5016246;28;20033;-81
2024/02/08 05:23:47;;;;;;;11.98;6.13;;;;;;;11.21;50.87;98269.72;5017665;28;20119;-82
2024/02/08 05:26:18;;;;;;;15.45;5.95;;;;;;;11.18;50.57;98269.16;5034303;28;20021;-81
2024/02/08 05:28:44;;;;;;;11.82;6.28;;;;;;;11.13;50.24;98271.34;5002218;28;20037;-82
2024/02/08 05:31:10;;;;;;;10.00;5.82;;;;;;;11.13;50.07;98277.41;5001244;28;20034;-84
2024/02/08 05:33:35;;;;;;;10.60;6.03;;;;;;;11.06;49.61;98271.03;5017445;28;20402;-81
2024/02/08 05:36:06;;;;;;;8.40;6.03;;;;;;;11.07;49.54;98283.16;5017410;28;20053;-82
2024/02/08 05:38:37;;;;;;;10.55;6.05;;;;;;;11.06;49.36;98278.88;5033855;28;20029;-83
2024/02/08 05:41:05;;;;;;;10.98;6.00;;;;;;;11.05;49.17;98272.00;5017927;28;20043;-83
2024/02/08 05:43:31;;;;;;;;;;;;;;;11.07;48.69;98271.84;5051897;28;20045;-81
2024/02/08 05:45:56;;;;;;;10.32;5.90;;;;;;;11.04;48.81;98279.00;5036539;28;19939;-82
2024/02/08 05:48:27;;;;;;;11.77;6.10;;;;;;;11.03;48.54;98269.50;5052945;28;20036;-82
2024/02/08 05:50:56;;;;;;;9.13;6.00;;;;;;;11.10;48.38;98274.22;5021548;28;20407;-82
2024/02/08 05:53:24;;;;;;;9.27;5.47;;;;;;;11.13;48.16;98281.78;5037261;28;20036;-82
2024/02/08 05:55:52;;;;;;;10.73;6.10;;;;;;;11.17;47.67;98291.03;5036792;28;20067;-81
2024/02/08 05:58:18;;;;;;;11.15;6.22;;;;;;;11.20;47.35;98293.38;5052333;28;20029;-81
2024/02/08 06:00:52;;;;;;;10.43;6.18;;;;;;;11.22;47.32;98294.06;5018845;28;20067;-81
2024/02/08 06:03:27;;;;;;;9.40;5.97;;;;;;;11.34;46.79;98308.69;5037966;28;20029;-81
2024/02/08 06:06:06;;;;;;;13.13;6.80;;;;;;;11.36;46.96;98292.88;5038416;28;20090;-83
2024/02/08 06:08:44;;;;;;;13.15;6.57;;;;;;;11.48;46.54;98306.66;5038458;28;20056;-82
2024/02/08 06:11:23;;;;;;;13.23;6.97;;;;;;;11.53;46.48;98304.47;5022940;28;20036;-82
2024/02/08 06:13:59;;;;;;;10.57;6.35;;;;;;;11.67;45.92;98308.47;5039077;28;20434;-83
2024/02/08 06:16:33;;;;;;;13.00;6.28;;;;;;;11.80;45.61;98311.69;5037563;28;20041;-82
2024/02/08 06:19:02;;;;;;;17.17;6.78;;;;;;;12.01;45.17;98306.38;5020900;28;20123;-82
2024/02/08 06:21:40;;;;;;;11.82;7.25;;;;;;;12.20;44.95;98310.78;5036396;28;20736;-83
2024/02/08 06:27:01;;;;;;;13.85;7.63;;;;;;;12.31;44.55;98313.25;5039694;28;20033;-82
2024/02/08 06:29:42;;;;;;;14.18;7.55;;;;;;;12.47;44.76;98322.34;5022401;28;20033;-82
2024/02/08 06:32:23;;;;;;;11.13;6.28;;;;;;;12.82;47.72;98316.50;5048010;28;20033;-80
2024/02/08 06:35:06;;;;;;;12.27;6.07;;;;;;;13.20;46.15;98321.75;5038073;28;20033;-82
2024/02/08 06:37:41;;;;;;;10.32;5.93;;;;;;;13.61;45.39;98318.84;5053466;28;20032;-78
2024/02/08 06:40:17;;;;;;;10.35;6.15;;;;;;;14.14;44.05;98312.00;5021472;28;20049;-76
2024/02/08 06:43:25;;;;;;;12.13;6.85;;;;;;;14.53;43.47;98306.41;5036728;28;20416;-76
2024/02/08 07:37:18;;;;;;;20.00;8.32;;;;;;;27.56;24.52;98324.72;5052429;28;20114;-73
2024/02/08 07:39:46;;;;;;;16.05;7.95;;;;;;;27.12;24.86;98325.13;5051600;28;20028;-75
2024/02/08 07:42:32;;;;;;;16.65;8.95;;;;;;;26.98;24.77;98319.19;5034684;28;20055;-73
2024/02/08 07:45:04;;;;;;;18.65;9.45;;;;;;;26.38;25.58;98333.56;5050960;28;20024;-74
2024/02/08 07:47:39;;;;;;;29.70;12.05;;;;;;;26.53;24.63;98335.78;5051129;28;20033;-75
2024/02/08 07:50:05;;;;;;;23.02;11.35;;;;;;;26.86;24.71;98332.56;5051271;28;20032;-76
2024/02/08 07:52:38;;;;;;;25.20;11.95;;;;;;;27.13;24.22;98329.44;5034402;28;20033;-72
2024/02/08 07:58:08;;;;;;;33.70;13.48;;;;;;;27.40;23.11;98324.41;5058515;28;20083;-74
2024/02/08 08:03:07;;;;;;;22.35;10.48;;;;;;;27.24;24.65;98325.91;5036659;28;20067;-75
2024/02/08 08:05:41;;;;;;;22.67;10.23;;;;;;;27.13;26.31;98328.63;5021413;28;20116;-73
2024/02/08 08:08:24;;;;;;;26.38;9.85;;;;;;;26.93;25.69;98335.16;5054217;28;20098;-73
2024/02/08 08:10:56;;;;;;;24.00;10.32;;;;;;;26.63;25.68;98332.53;5054818;28;20119;-76
2024/02/08 08:18:57;;;;;;;18.58;9.30;;;;;;;25.87;25.90;98333.03;5055912;28;20043;-75
2024/02/08 08:21:25;;;;;;;20.52;9.43;;;;;;;25.89;25.66;98324.78;5053811;28;20455;-75
2024/02/08 08:24:00;;;;;;;20.80;9.30;;;;;;;25.92;25.71;98316.28;5037141;28;20035;-77
2024/02/08 08:26:44;;;;;;;18.38;7.72;;;;;;;25.12;27.96;98319.91;5021670;28;20031;-77
2024/02/08 08:29:19;;;;;;;20.48;9.23;;;;;;;24.44;26.93;98318.84;5036124;28;20097;-74
2024/02/08 08:31:53;;;;;;;15.45;7.88;;;;;;;23.73;28.06;98315.34;5020431;28;20029;-75
2024/02/08 08:37:02;;;;;;;26.40;9.23;;;;;;;24.15;26.89;98313.09;5034522;28;20037;-79
2024/02/08 08:42:16;;;;;;;18.77;8.52;;;;;;;24.54;25.21;98319.16;5036976;28;20055;-80
2024/02/08 08:44:51;;;;;;;21.92;8.60;;;;;;;24.83;24.53;98312.38;5035178;28;20102;-80
2024/02/08 08:47:24;;;;;;;17.27;9.43;;;;;;;24.84;24.43;98315.84;5034383;28;20112;-78
2024/02/08 08:49:50;;;;;;;17.73;8.70;;;;;;;24.65;24.05;98312.31;5035180;28;20112;-79
2024/02/08 08:52:23;;;;;;;21.10;9.38;;;;;;;24.81;23.96;98317.13;5033845;28;20114;-79
2024/02/08 08:55:10;;;;;;;28.13;10.25;;;;;;;24.92;23.67;98310.22;5052501;28;20025;-82
2024/02/08 08:57:36;;;;;;;23.60;9.77;;;;;;;24.51;24.12;98314.25;5025029;28;20032;-81
2024/02/08 09:00:09;;;;;;;22.33;10.13;;;;;;;24.30;23.92;98313.56;5037528;28;20037;-82
2024/02/08 09:02:40;;;;;;;22.63;9.80;;;;;;;24.27;24.01;98313.19;5038539;28;20120;-81
2024/02/08 09:05:17;;;;;;;22.30;9.48;;;;;;;24.25;24.09;98313.41;5054088;28;20086;-81
2024/02/08 09:07:45;;;;;;;23.02;10.10;;;;;;;24.05;24.17;98312.72;5054247;28;20025;-81
2024/02/08 09:10:13;;;;;;;22.75;10.65;;;;;;;23.82;24.56;98316.72;5037786;28;20037;-81
2024/02/08 09:12:39;;;;;;;18.88;10.52;;;;;;;23.80;24.69;98321.47;5037562;28;20524;-82
2024/02/08 09:18:07;;;;;;;26.67;10.95;;;;;;;24.41;24.17;98314.72;5052704;28;20037;-82
2024/02/08 09:20:36;;;;;;;26.52;11.93;;;;;;;24.41;24.12;98306.72;5006362;28;20522;-78
2024/02/08 09:23:12;;;;;;;;;;;;;;;25.13;23.12;98308.16;5004155;28;20488;-81
2024/02/08 09:25:46;;;;;;;26.95;10.15;;;;;;;25.40;23.25;98303.38;5021461;28;20348;-80
2024/02/08 09:28:26;;;;;;;24.67;10.77;;;;;;;25.31;23.24;98312.75;5005725;28;20067;-81
2024/02/08 09:30:57;;;;;;;24.35;9.80;;;;;;;25.04;23.07;98304.97;5006751;28;20504;-80
2024/02/08 09:33:35;;;;;;;18.77;10.15;;;;;;;25.66;22.28;98304.09;5020144;28;20041;-83
2024/02/08 09:36:01;;;;;;;25.13;9.90;;;;;;;26.88;21.15;98306.41;5020802;28;20087;-81
2024/02/08 09:38:42;;;;;;;23.55;11.27;;;;;;;27.80;20.38;98304.03;5002911;28;20025;-80
2024/02/08 09:41:15;;;;;;;29.42;13.20;;;;;;;28.88;18.87;98303.16;5037769;28;20037;-84
2024/02/08 09:43:47;;;;;;;32.00;13.68;;;;;;;29.18;18.84;98297.38;5020092;28;20517;-82
2024/02/08 09:49:17;;;;;;;30.50;13.85;;;;;;;28.27;19.58;98279.63;5038116;28;20075;-82
2024/02/08 09:51:52;;;;;;;36.25;14.85;;;;;;;28.08;20.05;98279.03;5036920;28;20029;-82
2024/02/08 09:54:27;;;;;;;28.70;13.43;;;;;;;28.05;20.09;98276.03;5007162;28;20037;-81
2024/02/08 09:57:01;;;;;;;30.52;13.50;;;;;;;28.45;19.60;98283.97;5021620;28;20032;-82
2024/02/08 10:02:23;;;;;;;30.80;11.65;;;;;;;29.08;18.84;98286.47;5039264;28;20094;-83
2024/02/08 10:04:50;;;;;;;25.92;10.60;;;;;;;29.00;18.99;98274.31;5053109;28;20037;-81
2024/02/08 10:07:19;;;;;;;26.40;10.18;;;;;;;29.33;19.15;98269.91;5035372;28;20037;-83
2024/02/08 10:09:53;;;;;;;26.60;9.50;;;;;;;29.47;18.57;98267.63;5053015;28;20033;-82
2024/02/08 10:12:29;;;;;;;22.02;8.35;;;;;;;29.63;18.80;98260.56;5021996;28;20392;-84
2024/02/08 10:14:56;;;;;;;18.40;8.65;;;;;;;29.78;18.56;98258.03;5022465;28;20455;-79
2024/02/08 10:17:24;;;;;;;18.17;7.47;;;;;;;29.91;18.52;98251.44;5053221;28;20068;-83
2024/02/08 10:28:25;;;;;;;19.70;6.57;;;;;;;29.74;18.39;98232.69;5052634;28;20047;-81
2024/02/08 10:30:59;;;;;;;11.93;5.78;;;;;;;29.03;19.21;98232.69;5037882;28;20041;-82
2024/02/08 10:33:25;;;;;;;11.55;6.07;;;;;;;28.42;19.77;98217.34;5052432;28;20029;-81
2024/02/08 10:35:53;;;;;;;21.08;6.43;;;;;;;28.27;19.90;98225.97;5035579;28;20083;-82
2024/02/08 10:38:32;;;;;;;15.52;5.70;;;;;;;28.15;20.30;98211.84;5052821;28;20032;-81
2024/02/08 10:41:02;;;;;;;11.70;6.45;;;;;;;27.79;20.42;98206.66;5037283;28;20041;-81
2024/02/08 10:43:37;;;;;;;14.23;6.38;;;;;;;27.76;20.85;98207.13;5019785;28;20048;-82
2024/02/08 10:46:02;;;;;;;15.50;6.40;;;;;;;27.72;20.88;98199.81;5036892;28;20025;-83
2024/02/08 10:48:28;;;;;;;15.15;6.63;;;;;;;27.66;20.92;98195.41;5035371;28;20541;-83
2024/02/08 10:50:54;;;;;;;17.95;7.80;;;;;;;27.69;21.08;98193.09;5036002;28;20028;-81
2024/02/08 10:53:43;;;;;;;19.38;7.90;;;;;;;27.67;20.83;98191.69;5035398;28;20090;-82
2024/02/08 10:56:17;;;;;;;19.55;8.75;;;;;;;27.68;21.02;98179.91;5038268;28;20025;-81
2024/02/08 10:59:00;;;;;;;20.52;8.50;;;;;;;27.68;20.92;98179.91;5037244;28;20025;-81
2024/02/08 11:01:39;;;;;;;20.48;8.32;;;;;;;27.65;20.92;98172.34;5052540;28;20033;-81
2024/02/08 11:04:17;;;;;;;20.38;8.38;;;;;;;27.52;21.32;98168.13;5037601;28;20487;-82
2024/02/08 11:06:56;;;;;;;19.67;7.85;;;;;;;27.43;21.11;98168.47;5036660;28;20045;-81
2024/02/08 11:09:22;;;;;;;15.52;6.78;;;;;;;27.35;21.18;98168.88;5051678;28;20033;-81
2024/02/08 11:11:59;;;;;;;16.27;7.57;;;;;;;27.23;21.42;98165.41;5051787;28;20036;-81
2024/02/08 11:14:26;;;;;;;16.47;7.37;;;;;;;27.18;21.40;98160.75;5035018;28;20496;-83
2024/02/08 11:16:52;;;;;;;15.57;7.15;;;;;;;27.11;21.37;98168.13;5018769;28;20062;-83
2024/02/08 11:19:19;;;;;;;22.35;7.60;;;;;;;27.06;21.44;98168.03;5018547;28;20036;-82
2024/02/08 11:21:46;;;;;;;18.25;7.07;;;;;;;26.96;21.38;98165.94;5035259;28;20043;-84
2024/02/08 11:24:27;;;;;;;12.63;6.45;;;;;;;26.86;21.32;98161.22;5034481;28;20072;-84
2024/02/08 11:26:56;;;;;;;13.48;6.63;;;;;;;26.70;21.30;98151.25;5036260;28;20044;-82
2024/02/08 11:29:21;;;;;;;15.63;6.10;;;;;;;26.63;21.29;98143.31;5018829;28;20025;-81
2024/02/08 11:31:47;;;;;;;13.90;6.05;;;;;;;26.54;21.58;98142.06;5018005;28;20041;-83
2024/02/08 11:34:24;;;;;;;17.27;5.72;;;;;;;26.40;21.87;98141.47;5018297;28;20029;-83
2024/02/08 11:36:52;;;;;;;11.57;6.00;;;;;;;26.26;21.95;98138.22;5021585;28;20032;-83
2024/02/08 11:39:27;;;;;;;13.35;5.88;;;;;;;26.10;22.16;98138.94;5035249;28;20162;-82
2024/02/08 11:41:59;;;;;;;11.32;6.35;;;;;;;25.89;22.21;98126.94;5018728;28;20477;-82
2024/02/08 11:44:36;;;;;;;9.25;5.32;;;;;;;25.80;22.55;98135.25;5034562;28;20076;-81
2024/02/08 11:47:17;;;;;;;9.88;5.05;;;;;;;25.62;22.29;98128.16;5021147;28;20476;-83
2024/02/08 11:49:54;;;;;;;11.70;5.10;;;;;;;25.41;22.60;98118.00;5022493;28;20045;-81
2024/02/08 11:52:20;;;;;;;13.10;4.95;;;;;;;25.34;22.60;98131.44;5034453;28;20495;-80
2024/02/08 11:55:05;;;;;;;11.90;5.32;;;;;;;25.09;22.78;98123.53;5034466;28;20025;-81
2024/02/08 11:57:36;;;;;;;9.25;4.85;;;;;;;24.94;22.64;98123.97;5034451;28;20029;-81
2024/02/08 12:00:15;;;;;;;9.63;4.30;;;;;;;24.73;22.63;98122.56;5034703;28;20045;-82
2024/02/08 12:02:47;;;;;;;7.65;4.53;;;;;;;24.62;22.92;98112.63;5035182;28;20119;-83
2024/02/08 12:05:16;;;;;;;12.68;4.43;;;;;;;24.44;23.20;98114.22;5035090;28;20029;-83
2024/02/08 12:07:46;;;;;;;9.15;4.90;;;;;;;24.32;23.10;98111.50;5017677;28;20037;-81
2024/02/08 12:10:15;;;;;;;9.27;4.53;;;;;;;24.19;23.27;98104.44;5034552;28;20029;-83
2024/02/08 12:12:44;;;;;;;9.65;4.68;;;;;;;24.06;23.54;98098.44;5034320;28;20403;-83
2024/02/08 12:15:13;;;;;;;20.13;4.60;;;;;;;23.95;23.52;98103.44;5034177;28;20388;-82
2024/02/08 12:17:40;;;;;;;11.15;4.30;;;;;;;23.76;23.56;98094.53;5034060;28;20078;-82
2024/02/08 12:20:10;;;;;;;10.85;4.90;;;;;;;23.69;23.52;98103.63;5017641;28;20060;-83
2024/02/08 12:22:41;;;;;;;10.70;4.68;;;;;;;23.51;23.73;98097.19;5050924;28;20496;-83
2024/02/08 12:25:15;;;;;;;10.05;4.43;;;;;;;23.32;24.00;98087.50;5050993;28;20120;-83
2024/02/08 12:27:52;;;;;;;9.00;4.43;;;;;;;23.16;23.88;98076.34;5051000;28;20485;-80
2024/02/08 12:30:28;;;;;;;7.38;4.00;;;;;;;23.04;24.15;98083.34;5036831;28;20029;-82
2024/02/08 12:32:57;;;;;;;7.35;4.05;;;;;;;22.83;24.01;98079.16;5038514;28;20029;-82
2024/02/08 12:35:26;;;;;;;10.88;4.30;;;;;;;22.76;24.17;98072.03;5038525;28;20463;-82
2024/02/08 12:37:52;;;;;;;8.00;4.57;;;;;;;22.68;23.93;98066.94;5038202;28;20032;-82
2024/02/08 12:40:18;;;;;;;11.85;4.20;;;;;;;22.59;23.91;98062.88;5037815;28;20025;-82
2024/02/08 12:42:43;;;;;;;9.13;4.20;;;;;;;22.43;24.05;98064.19;5021290;28;20049;-82
2024/02/08 12:45:11;;;;;;;9.02;4.38;;;;;;;22.19;24.27;98063.00;5038194;28;20100;-83
2024/02/08 12:47:39;;;;;;;10.60;3.97;;;;;;;21.96;24.28;98064.25;5039107;28;20116;-82
2024/02/08 12:50:11;;;;;;;8.35;3.95;;;;;;;21.78;24.74;98064.09;5038174;28;20358;-80
2024/02/08 12:52:37;;;;;;;11.18;3.85;;;;;;;21.63;24.83;98070.44;5022414;28;20045;-82
2024/02/08 12:55:03;;;;;;;7.72;3.78;;;;;;;21.54;25.15;98066.34;5038178;28;20033;-81
2024/02/08 12:57:28;;;;;;;6.95;3.92;;;;;;;21.46;25.29;98064.66;5038022;28;20037;-81
2024/02/08 13:00:02;;;;;;;14.25;4.15;;;;;;;21.42;25.26;98063.44;5054508;28;20041;-81
2024/02/08 13:02:32;;;;;;;7.50;4.00;;;;;;;21.33;25.55;98054.03;5021775;28;20025;-81
2024/02/08 13:05:01;;;;;;;8.82;3.67;;;;;;;21.19;25.52;98060.34;5022408;28;20472;-83
2024/02/08 13:07:26;;;;;;;8.65;3.92;;;;;;;21.16;25.48;98064.22;5037882;28;20041;-82
2024/02/08 13:10:00;;;;;;;6.75;3.33;;;;;;;21.04;25.31;98056.03;5037675;28;20503;-81
2024/02/08 13:12:27;;;;;;;9.30;3.65;;;;;;;20.98;25.39;98061.31;5054429;28;20025;-83
2024/02/08 13:14:52;;;;;;;15.88;3.78;;;;;;;20.91;25.44;98050.72;5037598;28;20554;-82
2024/02/08 13:17:23;;;;;;;11.70;3.72;;;;;;;20.78;25.53;98044.34;5055088;28;20028;-84
2024/02/08 13:19:54;;;;;;;8.88;3.63;;;;;;;20.64;25.54;98042.66;5037677;28;20021;-82
2024/02/08 13:22:30;;;;;;;9.35;3.50;;;;;;;20.64;25.39;98042.66;5038860;28;20021;-82
2024/02/08 13:24:57;;;;;;;7.38;3.30;;;;;;;20.56;25.58;98043.63;5038604;28;20043;-83
2024/02/08 13:27:29;;;;;;;9.85;3.40;;;;;;;20.50;25.29;98041.75;5037094;28;20400;-81
2024/02/08 13:29:56;;;;;;;9.07;3.22;;;;;;;20.44;25.50;98034.59;5037461;28;20044;-82
2024/02/08 13:32:26;;;;;;;10.38;3.10;;;;;;;20.39;25.39;98042.34;5037007;28;20160;-82
2024/02/08 13:34:54;;;;;;;9.13;3.60;;;;;;;20.39;25.65;98044.97;5021280;28;20033;-81
2024/02/08 13:37:22;;;;;;;5.75;2.90;;;;;;;20.36;25.53;98045.38;5020174;28;20049;-81
2024/02/08 13:39:50;;;;;;;6.15;3.00;;;;;;;20.29;25.51;98042.69;5036773;28;20090;-82
2024/02/08 13:42:19;;;;;;;10.48;3.28;;;;;;;20.30;25.46;98043.50;5019234;28;20029;-82
2024/02/08 13:44:45;;;;;;;7.80;3.33;;;;;;;20.22;25.30;98036.53;5037175;28;20037;-82
2024/02/08 13:47:12;;;;;;;5.63;3.10;;;;;;;20.22;25.33;98041.84;5020114;28;20023;-83
2024/02/08 13:49:37;;;;;;;8.18;2.95;;;;;;;20.11;25.06;98031.78;5054493;28;20422;-81
2024/02/08 13:52:03;;;;;;;8.55;3.13;;;;;;;20.08;25.28;98040.13;5020023;28;20032;-82
2024/02/08 13:54:31;;;;;;;5.85;3.42;;;;;;;19.99;25.03;98042.13;5054661;28;20029;-81